createdAt,value
2022-09-13T00:02:15.230Z,2.80
2022-09-13T00:04:42.937Z,3.00
2022-09-13T00:07:10.641Z,2.80
2022-09-13T00:09:38.543Z,3.00
2022-09-13T00:12:06.600Z,2.63
2022-09-13T00:14:34.410Z,2.70
2022-09-13T00:17:03.654Z,2.80
2022-09-13T00:19:31.366Z,2.80
2022-09-13T00:21:59.061Z,3.13
2022-09-13T00:24:26.971Z,2.77
2022-09-13T00:26:54.670Z,2.70
2022-09-13T00:29:22.363Z,2.90
2022-09-13T00:31:50.146Z,3.10
2022-09-13T00:34:19.240Z,3.00
2022-09-13T00:36:47.207Z,2.80
2022-09-13T00:39:14.955Z,3.10
2022-09-13T00:41:42.650Z,3.20
2022-09-13T00:44:43.455Z,2.93
2022-09-13T00:47:12.978Z,3.30
2022-09-13T00:49:44.284Z,3.37
2022-09-13T00:52:19.596Z,3.20
2022-09-13T00:54:51.190Z,2.90
2022-09-13T00:57:23.137Z,3.23
2022-09-13T00:59:55.582Z,2.90
2022-09-13T01:02:23.828Z,3.43
2022-09-13T01:04:53.087Z,3.47
2022-09-13T01:07:20.964Z,3.40
2022-09-13T01:09:50.973Z,3.13
2022-09-13T01:12:31.909Z,3.27
2022-09-13T01:15:01.876Z,3.33
2022-09-13T01:17:31.113Z,3.43
2022-09-13T01:20:01.044Z,3.50
2022-09-13T01:23:15.927Z,3.47
2022-09-13T01:26:19.433Z,3.63
2022-09-13T01:29:31.733Z,3.53
2022-09-13T01:32:10.191Z,3.90
2022-09-13T01:34:49.835Z,3.40
2022-09-13T01:37:47.730Z,3.93
2022-09-13T01:40:32.755Z,3.73
2022-09-13T01:43:18.085Z,3.60
2022-09-13T01:45:54.371Z,3.57
2022-09-13T01:48:30.914Z,3.60
2022-09-13T01:51:05.668Z,3.60
2022-09-13T01:53:41.765Z,3.77
2022-09-13T01:56:15.361Z,3.70
2022-09-13T01:58:48.031Z,3.40
2022-09-13T02:01:19.388Z,3.90
2022-09-13T02:03:55.780Z,3.67
2022-09-13T02:06:27.663Z,3.50
2022-09-13T02:08:58.045Z,4.10
2022-09-13T02:11:25.900Z,4.40
2022-09-13T02:13:59.727Z,4.73
2022-09-13T02:16:34.018Z,4.63
2022-09-13T02:19:08.339Z,4.80
2022-09-13T02:21:42.617Z,5.17
2022-09-13T02:24:14.761Z,5.07
2022-09-13T02:26:45.578Z,5.77
2022-09-13T02:29:19.890Z,6.13
2022-09-13T02:31:52.644Z,6.50
2022-09-13T02:34:24.199Z,7.07
2022-09-13T02:36:55.570Z,7.10
2022-09-13T02:39:26.536Z,7.20
2022-09-13T02:41:59.609Z,7.50
2022-09-13T02:44:34.434Z,7.10
2022-09-13T02:47:12.082Z,8.20
2022-09-13T02:49:51.652Z,8.00
2022-09-13T02:52:31.111Z,8.10
2022-09-13T02:55:14.788Z,7.83
2022-09-13T02:57:53.196Z,7.87
2022-09-13T03:00:20.983Z,8.40
2022-09-13T03:02:51.014Z,8.03
2022-09-13T03:05:20.371Z,7.97
2022-09-13T03:07:48.825Z,8.13
2022-09-13T03:10:17.206Z,7.77
2022-09-13T03:13:05.906Z,7.37
2022-09-13T03:15:52.608Z,7.73
2022-09-13T03:18:38.688Z,8.43
2022-09-13T03:21:17.520Z,7.87
2022-09-13T03:23:56.788Z,8.00
2022-09-13T03:26:40.990Z,8.07
2022-09-13T03:29:31.718Z,7.60
2022-09-13T03:32:16.384Z,7.73
2022-09-13T03:34:49.890Z,7.80
2022-09-13T03:37:26.229Z,8.07
2022-09-13T03:40:00.222Z,7.87
2022-09-13T03:42:36.223Z,7.90
2022-09-13T03:45:06.278Z,8.57
2022-09-13T03:47:37.339Z,7.60
2022-09-13T03:50:08.718Z,7.80
2022-09-13T03:52:38.797Z,7.40
2022-09-13T03:55:08.847Z,7.10
2022-09-13T03:57:38.121Z,7.00
2022-09-13T04:00:07.201Z,7.13
2022-09-13T04:02:34.926Z,7.13
2022-09-13T04:05:02.709Z,6.23
2022-09-13T04:07:30.402Z,6.90
2022-09-13T04:09:59.485Z,6.90
2022-09-13T04:12:28.490Z,6.67
2022-09-13T04:14:56.190Z,6.20
2022-09-13T04:17:24.193Z,6.67
2022-09-13T04:19:51.922Z,6.20
2022-09-13T04:22:19.659Z,6.40
2022-09-13T04:24:47.359Z,5.37
2022-09-13T04:27:16.484Z,5.93
2022-09-13T04:29:44.169Z,6.47
2022-09-13T04:32:11.844Z,6.30
2022-09-13T04:34:39.557Z,6.40
2022-09-13T04:37:07.231Z,6.90
2022-09-13T04:39:34.962Z,6.57
2022-09-13T04:42:03.585Z,7.10
2022-09-13T04:44:33.460Z,7.20
2022-09-13T04:47:01.227Z,8.13
2022-09-13T04:49:28.999Z,7.57
2022-09-13T04:51:56.771Z,7.50
2022-09-13T04:54:24.484Z,6.90
2022-09-13T04:56:52.223Z,7.63
2022-09-13T04:59:19.908Z,7.40
2022-09-13T05:01:49.070Z,7.50
2022-09-13T05:04:17.003Z,8.77
2022-09-13T05:06:44.831Z,8.50
2022-09-13T05:09:14.752Z,8.20
2022-09-13T05:11:43.266Z,8.50
2022-09-13T05:14:12.103Z,9.07
2022-09-13T05:16:40.466Z,9.53
2022-09-13T05:19:10.631Z,9.70
2022-09-13T05:21:38.404Z,10.07
2022-09-13T05:24:06.509Z,10.40
2022-09-13T05:26:34.337Z,10.93
2022-09-13T05:29:02.351Z,10.77
2022-09-13T05:31:32.052Z,10.43
2022-09-13T05:34:01.714Z,11.50
2022-09-13T05:36:30.986Z,10.77
2022-09-13T05:39:19.172Z,11.50
2022-09-13T05:41:47.204Z,10.57
2022-09-13T05:44:15.048Z,11.70
2022-09-13T05:46:43.396Z,11.67
2022-09-13T05:49:13.549Z,11.83
2022-09-13T05:51:42.704Z,12.23
2022-09-13T05:54:12.549Z,11.23
2022-09-13T05:56:40.313Z,11.97
2022-09-13T05:59:08.975Z,12.00
2022-09-13T06:01:36.814Z,12.20
2022-09-13T06:04:04.700Z,13.03
2022-09-13T06:06:32.407Z,12.40
2022-09-13T06:09:01.615Z,13.30
2022-09-13T06:11:29.367Z,13.87
2022-09-13T06:13:57.085Z,12.97
2022-09-13T06:16:24.817Z,12.67
2022-09-13T06:18:52.579Z,13.60
2022-09-13T06:21:25.752Z,14.43
2022-09-13T06:23:56.118Z,14.50
2022-09-13T06:26:26.801Z,14.40
2022-09-13T06:28:56.014Z,15.43
2022-09-13T06:31:25.823Z,14.80
2022-09-13T06:33:58.031Z,14.70
2022-09-13T06:36:26.066Z,14.27
2022-09-13T06:38:54.256Z,15.10
2022-09-13T06:41:24.925Z,15.70
2022-09-13T06:43:56.307Z,16.27
2022-09-13T06:46:25.425Z,16.10
2022-09-13T06:48:54.057Z,16.10
2022-09-13T06:51:23.735Z,17.30
2022-09-13T06:53:52.780Z,17.43
2022-09-13T06:56:22.483Z,17.13
2022-09-13T06:58:51.982Z,16.40
2022-09-13T07:01:23.249Z,16.87
2022-09-13T07:03:52.637Z,16.23
2022-09-13T07:06:22.804Z,16.90
2022-09-13T07:08:52.138Z,16.90
2022-09-13T07:11:21.371Z,16.37
2022-09-13T07:13:50.414Z,16.63
2022-09-13T07:16:19.079Z,16.90
2022-09-13T07:18:52.360Z,17.00
2022-09-13T07:21:20.658Z,16.53
2022-09-13T07:23:48.378Z,16.53
2022-09-13T07:26:16.436Z,16.67
2022-09-13T07:28:46.371Z,16.17
2022-09-13T07:31:15.771Z,16.60
2022-09-13T07:33:44.726Z,15.30
2022-09-13T07:36:14.703Z,16.63
2022-09-13T07:38:45.646Z,14.93
2022-09-13T07:41:15.587Z,15.27
2022-09-13T07:43:44.106Z,14.10
2022-09-13T07:46:13.488Z,13.97
2022-09-13T07:48:43.098Z,15.10
2022-09-13T07:51:14.110Z,13.97
2022-09-13T07:53:43.386Z,13.83
2022-09-13T07:56:12.846Z,13.57
2022-09-13T07:58:42.237Z,12.03
2022-09-13T08:01:14.002Z,12.53
2022-09-13T08:03:42.278Z,11.90
2022-09-13T08:06:10.513Z,11.47
2022-09-13T08:08:39.578Z,11.00
2022-09-13T08:11:08.356Z,7.57
2022-09-13T08:13:36.068Z,7.03
2022-09-13T08:16:05.227Z,6.90
2022-09-13T08:18:33.630Z,6.63
2022-09-13T08:21:02.483Z,5.60
2022-09-13T08:23:30.491Z,5.67
2022-09-13T08:26:04.122Z,5.03
2022-09-13T08:28:32.613Z,5.60
2022-09-13T08:31:05.202Z,5.07
2022-09-13T08:33:33.839Z,5.20
2022-09-13T08:36:02.153Z,5.03
2022-09-13T08:38:30.299Z,4.23
2022-09-13T08:41:00.456Z,3.77
2022-09-13T08:43:45.488Z,3.67
2022-09-13T08:46:22.470Z,2.90
2022-09-13T08:48:53.665Z,2.97
2022-09-13T08:51:42.812Z,2.80
2022-09-13T08:54:14.629Z,2.50
2022-09-13T08:56:47.122Z,2.80
2022-09-13T08:59:32.370Z,2.60
2022-09-13T09:02:14.002Z,2.30
2022-09-13T09:04:47.884Z,2.13
2022-09-13T09:07:20.152Z,1.80
2022-09-13T09:09:54.573Z,2.13
2022-09-13T09:12:30.366Z,1.87
2022-09-13T09:15:06.249Z,1.93
2022-09-13T09:17:46.486Z,2.07
2022-09-13T09:20:24.921Z,1.80
2022-09-13T09:22:55.085Z,2.17
2022-09-13T09:25:26.211Z,1.83
2022-09-13T09:27:54.903Z,2.20
2022-09-13T09:30:24.072Z,1.80
2022-09-13T09:33:14.585Z,1.90
2022-09-13T09:35:54.073Z,2.00
2022-09-13T09:38:33.811Z,1.60
2022-09-13T09:41:05.700Z,1.30
2022-09-13T09:43:37.038Z,1.40
2022-09-13T09:46:10.264Z,2.03
2022-09-13T09:48:43.903Z,1.67
2022-09-13T09:51:14.666Z,1.63
2022-09-13T09:53:47.506Z,1.50
2022-09-13T09:56:24.420Z,1.47
2022-09-13T09:58:53.159Z,1.60
2022-09-13T10:01:25.481Z,1.90
2022-09-13T10:04:04.482Z,1.43
2022-09-13T10:06:32.957Z,1.40
2022-09-13T10:09:03.629Z,1.50
2022-09-13T10:11:43.536Z,1.80
2022-09-13T10:14:30.722Z,1.50
2022-09-13T10:17:18.490Z,1.83
2022-09-13T10:19:55.242Z,1.43
2022-09-13T10:22:23.608Z,1.80
2022-09-13T10:24:51.621Z,1.50
2022-09-13T10:27:27.789Z,1.63
2022-09-13T10:29:59.755Z,1.40
2022-09-13T10:32:30.214Z,2.10
2022-09-13T10:35:04.397Z,1.43
2022-09-13T10:37:35.385Z,1.63
2022-09-13T10:40:08.819Z,2.20
2022-09-13T10:42:37.499Z,1.40
2022-09-13T10:45:07.707Z,1.33
2022-09-13T10:47:47.877Z,1.60
2022-09-13T10:50:24.241Z,1.63
2022-09-13T10:52:52.994Z,1.67
2022-09-13T10:55:35.714Z,1.30
2022-09-13T10:58:19.206Z,1.20
2022-09-13T11:01:02.809Z,1.40
2022-09-13T11:03:47.268Z,1.30
2022-09-13T11:06:24.531Z,1.33
2022-09-13T11:08:58.697Z,1.47
2022-09-13T11:11:36.514Z,1.37
2022-09-13T11:14:19.902Z,1.40
2022-09-13T11:17:00.637Z,1.40
2022-09-13T11:20:16.911Z,1.47
2022-09-13T11:23:15.231Z,1.40
2022-09-13T11:25:55.324Z,1.53
2022-09-13T11:28:34.598Z,1.63
2022-09-13T11:31:20.424Z,1.50
2022-09-13T11:33:59.889Z,1.17
2022-09-13T11:36:54.350Z,1.70
2022-09-13T11:39:32.063Z,1.10
2022-09-13T11:42:12.773Z,1.50
2022-09-13T11:44:59.418Z,1.50
2022-09-13T11:47:39.764Z,1.37
2022-09-13T11:50:27.260Z,1.63
2022-09-13T11:53:12.138Z,1.50
2022-09-13T11:55:47.106Z,1.07
2022-09-13T11:58:19.707Z,1.30
2022-09-13T12:00:51.370Z,1.73
2022-09-13T12:03:28.431Z,1.73
2022-09-13T12:06:01.228Z,1.90
2022-09-13T12:08:33.659Z,1.83
2022-09-13T12:11:07.342Z,1.80
2022-09-13T12:13:42.519Z,1.50
2022-09-13T12:16:17.311Z,1.70
2022-09-13T12:18:49.337Z,1.40
2022-09-13T12:21:19.438Z,1.60
2022-09-13T12:23:52.973Z,1.43
2022-09-13T12:26:26.202Z,1.40
2022-09-13T12:28:58.373Z,1.27
2022-09-13T12:31:28.677Z,1.50
2022-09-13T12:33:57.199Z,1.70
2022-09-13T12:36:47.537Z,1.43
2022-09-13T12:39:31.529Z,1.50
2022-09-13T12:42:25.297Z,1.50
2022-09-13T12:45:08.023Z,1.87
2022-09-13T12:47:54.170Z,1.57
2022-09-13T12:50:43.799Z,1.30
2022-09-13T12:53:36.089Z,1.20
2022-09-13T12:56:18.342Z,1.37
2022-09-13T12:59:12.990Z,1.60
2022-09-13T13:01:46.998Z,1.30
2022-09-13T13:04:19.502Z,1.70
2022-09-13T13:06:53.413Z,1.47
2022-09-13T13:09:29.030Z,1.70
2022-09-13T13:11:59.689Z,1.30
2022-09-13T13:14:43.935Z,1.87
2022-09-13T13:17:41.114Z,1.40
2022-09-13T13:20:46.001Z,1.30
2022-09-13T13:23:21.822Z,1.50
2022-09-13T13:26:14.604Z,1.57
2022-09-13T13:29:14.412Z,1.67
2022-09-13T13:31:45.676Z,1.40
2022-09-13T13:34:38.009Z,1.40
2022-09-13T13:37:23.583Z,1.30
2022-09-13T13:40:14.111Z,1.37
2022-09-13T13:42:45.149Z,1.40
2022-09-13T13:45:26.487Z,2.57
2022-09-13T13:48:17.820Z,1.30
2022-09-13T13:51:16.045Z,1.57
2022-09-13T13:53:47.469Z,1.27
2022-09-13T13:56:23.448Z,1.03
2022-09-13T13:58:55.426Z,1.50
2022-09-13T14:01:27.068Z,1.50
2022-09-13T14:04:31.391Z,1.50
2022-09-13T14:07:21.061Z,1.47
2022-09-13T14:09:56.947Z,1.30
2022-09-13T14:12:38.587Z,1.40
2022-09-13T14:15:17.223Z,1.43
2022-09-13T14:18:14.883Z,1.50
2022-09-13T14:21:01.250Z,1.20
2022-09-13T14:23:30.901Z,1.67
2022-09-13T14:26:00.538Z,3.20
2022-09-13T14:28:28.878Z,2.00
2022-09-13T14:30:58.929Z,1.53
2022-09-13T14:33:32.088Z,1.40
2022-09-13T14:36:03.427Z,1.63
2022-09-13T14:38:35.591Z,1.20
2022-09-13T14:41:14.174Z,1.53
2022-09-13T14:43:42.649Z,1.10
2022-09-13T14:46:15.088Z,1.60
2022-09-13T14:48:50.578Z,1.50
2022-09-13T14:51:23.776Z,1.70
2022-09-13T14:53:56.408Z,2.27
2022-09-13T14:56:36.041Z,1.50
2022-09-13T14:59:12.977Z,1.73
2022-09-13T15:01:40.686Z,1.63
2022-09-13T15:04:08.464Z,2.23
2022-09-13T15:06:39.371Z,1.60
2022-09-13T15:09:28.335Z,1.53
2022-09-13T15:12:01.111Z,4.00
2022-09-13T15:14:31.185Z,2.50
2022-09-13T15:17:08.941Z,1.80
2022-09-13T15:19:39.713Z,1.57
2022-09-13T15:22:18.970Z,1.60
2022-09-13T15:24:50.905Z,1.70
2022-09-13T15:27:22.063Z,1.50
2022-09-13T15:29:51.129Z,1.40
2022-09-13T15:32:31.593Z,1.60
2022-09-13T15:35:01.371Z,1.63
2022-09-13T15:37:35.859Z,1.90
2022-09-13T15:40:15.243Z,1.60
2022-09-13T15:42:47.300Z,1.37
2022-09-13T15:45:15.807Z,1.40
2022-09-13T15:47:47.530Z,2.00
2022-09-13T15:50:26.954Z,1.50
2022-09-13T15:52:55.477Z,1.73
2022-09-13T15:55:25.152Z,1.70
2022-09-13T15:57:53.703Z,1.73
2022-09-13T16:00:23.690Z,1.37
2022-09-13T16:02:51.859Z,1.30
2022-09-13T16:05:20.774Z,1.87
2022-09-13T16:07:48.470Z,1.20
2022-09-13T16:10:19.386Z,1.60
2022-09-13T16:12:48.810Z,1.73
2022-09-13T16:15:18.952Z,1.30
2022-09-13T16:17:46.733Z,1.57
2022-09-13T16:20:16.086Z,1.90
2022-09-13T16:22:44.399Z,1.40
2022-09-13T16:25:14.065Z,1.57
2022-09-13T16:27:41.847Z,1.40
2022-09-13T16:30:13.164Z,1.47
2022-09-13T16:32:41.284Z,1.40
2022-09-13T16:35:09.750Z,1.43
2022-09-13T16:37:37.723Z,1.80
2022-09-13T16:40:06.109Z,1.43
2022-09-13T16:42:35.388Z,1.70
2022-09-13T16:45:03.268Z,1.47
2022-09-13T16:47:32.478Z,1.50
2022-09-13T16:50:00.475Z,1.50
2022-09-13T16:52:29.814Z,1.77
2022-09-13T16:54:57.500Z,1.30
2022-09-13T16:57:25.952Z,1.57
2022-09-13T16:59:54.217Z,1.40
2022-09-13T17:02:22.398Z,1.93
2022-09-13T17:04:51.848Z,1.60
2022-09-13T17:07:20.167Z,2.37
2022-09-13T17:09:49.468Z,1.67
2022-09-13T17:12:17.266Z,1.57
2022-09-13T17:14:47.596Z,1.60
2022-09-13T17:17:16.341Z,1.30
2022-09-13T17:19:44.750Z,1.50
2022-09-13T17:22:14.112Z,1.30
2022-09-13T17:24:42.840Z,1.70
2022-09-13T17:27:10.752Z,1.77
2022-09-13T17:29:38.934Z,1.53
2022-09-13T17:32:07.296Z,1.80
2022-09-13T17:34:35.104Z,1.30
2022-09-13T17:37:03.874Z,1.80
2022-09-13T17:39:33.534Z,1.37
2022-09-13T17:42:01.494Z,1.50
2022-09-13T17:44:29.384Z,1.70
2022-09-13T17:46:57.101Z,1.70
2022-09-13T17:49:24.818Z,1.57
2022-09-13T17:51:52.477Z,1.43
2022-09-13T17:54:20.183Z,1.57
2022-09-13T17:56:51.583Z,1.63
2022-09-13T17:59:22.461Z,1.60
2022-09-13T18:01:51.862Z,1.53
2022-09-13T18:04:21.988Z,1.87
2022-09-13T18:06:51.757Z,1.50
2022-09-13T18:09:19.521Z,1.40
2022-09-13T18:11:47.556Z,1.90
2022-09-13T18:14:18.431Z,1.83
2022-09-13T18:16:46.994Z,1.63
2022-09-13T18:19:14.748Z,1.53
2022-09-13T18:21:42.459Z,1.30
2022-09-13T18:24:10.324Z,1.93
2022-09-13T18:26:38.130Z,1.50
2022-09-13T18:29:11.092Z,1.73
2022-09-13T18:31:41.980Z,1.90
2022-09-13T18:34:12.599Z,1.83
2022-09-13T18:36:41.290Z,1.77
2022-09-13T18:39:13.382Z,1.37
2022-09-13T18:41:41.591Z,1.60
2022-09-13T18:44:11.268Z,1.70
2022-09-13T18:46:41.281Z,1.53
2022-09-13T18:49:10.206Z,1.90
2022-09-13T18:51:39.630Z,1.30
2022-09-13T18:54:09.138Z,1.20
2022-09-13T18:56:37.208Z,1.20
2022-09-13T18:59:06.688Z,1.20
2022-09-13T19:01:36.411Z,1.30
2022-09-13T19:04:07.419Z,1.00
2022-09-13T19:06:37.389Z,1.37
2022-09-13T19:09:06.580Z,1.00
2022-09-13T19:11:46.261Z,1.20
2022-09-13T19:14:15.165Z,1.17
2022-09-13T19:16:43.164Z,1.40
2022-09-13T19:19:12.362Z,1.10
2022-09-13T19:21:40.157Z,1.27
2022-09-13T19:24:14.855Z,1.13
2022-09-13T19:26:45.932Z,1.20
2022-09-13T19:29:15.054Z,1.53
2022-09-13T19:31:44.599Z,1.33
2022-09-13T19:34:14.872Z,1.10
2022-09-13T19:36:44.272Z,1.60
2022-09-13T19:39:12.540Z,1.50
2022-09-13T19:41:40.921Z,1.50
2022-09-13T19:44:09.567Z,1.10
2022-09-13T19:46:40.401Z,1.27
2022-09-13T19:49:10.873Z,1.47
2022-09-13T19:51:41.494Z,1.40
2022-09-13T19:54:12.584Z,1.20
2022-09-13T19:56:42.617Z,1.30
2022-09-13T19:59:13.342Z,1.53
2022-09-13T20:01:43.179Z,1.23
2022-09-13T20:04:13.255Z,1.00
2022-09-13T20:06:44.218Z,1.57
2022-09-13T20:09:13.547Z,1.03
2022-09-13T20:11:45.008Z,1.20
2022-09-13T20:14:13.580Z,1.23
2022-09-13T20:16:42.672Z,1.33
2022-09-13T20:19:38.952Z,1.20
2022-09-13T20:22:04.716Z,1.10
2022-09-13T20:24:32.481Z,1.20
2022-09-13T20:27:00.163Z,1.37
2022-09-13T20:29:27.858Z,1.30
2022-09-13T20:31:56.085Z,1.27
2022-09-13T20:34:23.788Z,1.30
2022-09-13T20:36:51.557Z,1.10
2022-09-13T20:39:20.707Z,1.10
2022-09-13T20:41:49.408Z,1.10
2022-09-13T20:44:17.162Z,1.30
2022-09-13T20:46:45.007Z,1.20
2022-09-13T20:49:12.819Z,1.80
2022-09-13T20:51:40.528Z,1.37
2022-09-13T20:54:08.600Z,1.70
2022-09-13T20:56:37.671Z,1.30
2022-09-13T20:59:05.763Z,1.27
2022-09-13T21:01:34.401Z,1.20
2022-09-13T21:04:02.930Z,1.50
2022-09-13T21:06:32.631Z,1.30
2022-09-13T21:09:00.059Z,1.73
2022-09-13T21:11:30.371Z,1.33
2022-09-13T21:14:02.029Z,1.40
2022-09-13T21:16:31.684Z,1.40
2022-09-13T21:19:00.743Z,1.63
2022-09-13T21:21:30.219Z,1.73
2022-09-13T21:23:58.463Z,1.60
2022-09-13T21:26:28.290Z,1.27
2022-09-13T21:28:58.520Z,1.57
2022-09-13T21:31:30.099Z,1.50
2022-09-13T21:33:59.932Z,1.83
2022-09-13T21:36:29.337Z,1.30
2022-09-13T21:38:57.831Z,1.37
2022-09-13T21:41:27.404Z,1.50
2022-09-13T21:43:55.882Z,1.77
2022-09-13T21:46:25.705Z,1.50
2022-09-13T21:48:56.545Z,1.30
2022-09-13T21:51:25.989Z,1.70
2022-09-13T21:53:58.698Z,1.77
2022-09-13T21:56:28.658Z,1.40
2022-09-13T21:58:58.539Z,1.73
2022-09-13T22:01:28.392Z,1.73
2022-09-13T22:03:58.311Z,1.50
2022-09-13T22:06:31.365Z,1.40
2022-09-13T22:09:02.069Z,1.50
2022-09-13T22:11:32.053Z,1.50
2022-09-13T22:14:02.061Z,1.30
2022-09-13T22:16:32.206Z,1.83
2022-09-13T22:19:08.654Z,1.90
2022-09-13T22:21:38.571Z,1.57
2022-09-13T22:24:07.720Z,1.63
2022-09-13T22:26:37.654Z,1.63
2022-09-13T22:29:05.509Z,1.63
2022-09-13T22:31:35.156Z,2.10
2022-09-13T22:34:05.058Z,1.70
2022-09-13T22:36:32.792Z,1.83
2022-09-13T22:39:00.671Z,1.80
2022-09-13T22:41:30.908Z,1.67
2022-09-13T22:43:59.713Z,1.80
2022-09-13T22:46:30.275Z,2.47
2022-09-13T22:48:58.166Z,1.57
2022-09-13T22:51:27.889Z,1.57
2022-09-13T22:53:57.228Z,2.20
2022-09-13T22:56:27.155Z,1.50
2022-09-13T22:58:55.974Z,1.63
2022-09-13T23:01:24.769Z,1.83
2022-09-13T23:03:53.272Z,1.90
2022-09-13T23:06:23.400Z,2.30
2022-09-13T23:08:53.882Z,2.30
2022-09-13T23:11:24.013Z,1.93
2022-09-13T23:13:54.164Z,1.90
2022-09-13T23:16:24.354Z,1.90
2022-09-13T23:18:52.801Z,2.07
2022-09-13T23:21:22.449Z,1.60
2022-09-13T23:23:52.125Z,1.30
2022-09-13T23:26:22.899Z,1.60
2022-09-13T23:28:54.770Z,1.93
2022-09-13T23:31:24.379Z,1.70
2022-09-13T23:33:54.030Z,2.03
2022-09-13T23:36:23.882Z,2.43
2022-09-13T23:38:55.644Z,1.80
2022-09-13T23:41:25.528Z,1.87
2022-09-13T23:43:54.155Z,1.60
2022-09-13T23:46:22.486Z,1.73
2022-09-13T23:48:50.475Z,2.00
2022-09-13T23:51:19.927Z,2.43
2022-09-13T23:53:48.007Z,1.53
2022-09-13T23:56:17.798Z,2.17
2022-09-13T23:58:46.562Z,2.63
